sensor_id;sensor_type;location;lat;lon;timestamp;temperature;humidity
16966;DHT22;8599;47.852;12.070;2023-04-24T00:00:22;11.90;99.90
16966;DHT22;8599;47.852;12.070;2023-04-24T00:02:49;12.10;99.90
16966;DHT22;8599;47.852;12.070;2023-04-24T00:05:17;12.00;99.90
16966;DHT22;8599;47.852;12.070;2023-04-24T00:07:44;11.90;99.90
16966;DHT22;8599;47.852;12.070;2023-04-24T00:10:11;11.90;99.90
16966;DHT22;8599;47.852;12.070;2023-04-24T00:12:38;12.00;99.90
16966;DHT22;8599;47.852;12.070;2023-04-24T00:15:06;12.00;99.90
16966;DHT22;8599;47.852;12.070;2023-04-24T00:17:33;11.90;99.90
16966;DHT22;8599;47.852;12.070;2023-04-24T00:20:00;11.90;99.90
16966;DHT22;8599;47.852;12.070;2023-04-24T00:22:31;11.80;99.90
16966;DHT22;8599;47.852;12.070;2023-04-24T00:24:58;11.80;99.90
16966;DHT22;8599;47.852;12.070;2023-04-24T00:27:25;11.80;99.90
16966;DHT22;8599;47.852;12.070;2023-04-24T00:29:51;11.70;99.90
16966;DHT22;8599;47.852;12.070;2023-04-24T00:32:18;11.70;99.90
16966;DHT22;8599;47.852;12.070;2023-04-24T00:34:45;11.70;99.90
16966;DHT22;8599;47.852;12.070;2023-04-24T00:37:12;11.70;99.90
16966;DHT22;8599;47.852;12.070;2023-04-24T00:39:40;11.80;99.90
16966;DHT22;8599;47.852;12.070;2023-04-24T00:42:07;11.80;99.90
16966;DHT22;8599;47.852;12.070;2023-04-24T00:44:34;11.80;99.90
16966;DHT22;8599;47.852;12.070;2023-04-24T00:47:01;11.80;99.90
16966;DHT22;8599;47.852;12.070;2023-04-24T00:49:28;11.90;99.90
16966;DHT22;8599;47.852;12.070;2023-04-24T00:51:55;11.90;99.90
16966;DHT22;8599;47.852;12.070;2023-04-24T00:54:22;11.90;99.90
16966;DHT22;8599;47.852;12.070;2023-04-24T00:56:50;11.90;99.90
16966;DHT22;8599;47.852;12.070;2023-04-24T00:59:18;11.90;99.90
16966;DHT22;8599;47.852;12.070;2023-04-24T01:01:45;11.90;99.90
16966;DHT22;8599;47.852;12.070;2023-04-24T01:04:13;11.90;99.90
16966;DHT22;8599;47.852;12.070;2023-04-24T01:06:42;11.90;99.90
16966;DHT22;8599;47.852;12.070;2023-04-24T01:09:10;12.00;99.90
16966;DHT22;8599;47.852;12.070;2023-04-24T01:11:38;11.90;99.90
16966;DHT22;8599;47.852;12.070;2023-04-24T01:14:08;12.00;99.90
16966;DHT22;8599;47.852;12.070;2023-04-24T01:16:35;12.00;99.90
16966;DHT22;8599;47.852;12.070;2023-04-24T01:19:03;11.90;99.90
16966;DHT22;8599;47.852;12.070;2023-04-24T01:21:33;11.90;99.90
16966;DHT22;8599;47.852;12.070;2023-04-24T01:24:03;11.90;99.90
16966;DHT22;8599;47.852;12.070;2023-04-24T01:26:31;11.90;99.90
16966;DHT22;8599;47.852;12.070;2023-04-24T01:28:58;11.80;99.90
16966;DHT22;8599;47.852;12.070;2023-04-24T01:31:25;11.80;99.90
16966;DHT22;8599;47.852;12.070;2023-04-24T01:33:52;11.80;99.90
16966;DHT22;8599;47.852;12.070;2023-04-24T01:36:21;11.70;99.90
16966;DHT22;8599;47.852;12.070;2023-04-24T01:38:48;11.80;99.90
16966;DHT22;8599;47.852;12.070;2023-04-24T01:41:16;11.80;99.90
16966;DHT22;8599;47.852;12.070;2023-04-24T01:43:43;11.70;99.90
16966;DHT22;8599;47.852;12.070;2023-04-24T01:46:10;11.70;99.90
16966;DHT22;8599;47.852;12.070;2023-04-24T01:48:36;11.70;99.90
16966;DHT22;8599;47.852;12.070;2023-04-24T01:51:03;11.70;99.90
16966;DHT22;8599;47.852;12.070;2023-04-24T01:53:30;11.80;99.90
16966;DHT22;8599;47.852;12.070;2023-04-24T01:55:57;11.70;99.90
16966;DHT22;8599;47.852;12.070;2023-04-24T01:58:25;11.70;99.90
16966;DHT22;8599;47.852;12.070;2023-04-24T02:00:53;11.70;99.90
16966;DHT22;8599;47.852;12.070;2023-04-24T02:03:22;11.70;99.90
16966;DHT22;8599;47.852;12.070;2023-04-24T02:05:49;11.60;99.90
16966;DHT22;8599;47.852;12.070;2023-04-24T02:08:15;11.60;99.90
16966;DHT22;8599;47.852;12.070;2023-04-24T02:10:42;11.60;99.90
16966;DHT22;8599;47.852;12.070;2023-04-24T02:13:09;11.60;99.90
16966;DHT22;8599;47.852;12.070;2023-04-24T02:15:37;11.60;99.90
16966;DHT22;8599;47.852;12.070;2023-04-24T02:18:04;11.60;99.90
16966;DHT22;8599;47.852;12.070;2023-04-24T02:20:32;11.70;99.90
16966;DHT22;8599;47.852;12.070;2023-04-24T02:22:59;11.70;99.90
16966;DHT22;8599;47.852;12.070;2023-04-24T02:25:26;11.70;99.90
16966;DHT22;8599;47.852;12.070;2023-04-24T02:27:53;11.70;99.90
16966;DHT22;8599;47.852;12.070;2023-04-24T02:30:19;11.70;99.90
16966;DHT22;8599;47.852;12.070;2023-04-24T02:32:48;11.60;99.90
16966;DHT22;8599;47.852;12.070;2023-04-24T02:35:14;11.60;99.90
16966;DHT22;8599;47.852;12.070;2023-04-24T02:37:41;11.60;99.90
16966;DHT22;8599;47.852;12.070;2023-04-24T02:40:09;11.60;99.90
16966;DHT22;8599;47.852;12.070;2023-04-24T02:42:36;11.60;99.90
16966;DHT22;8599;47.852;12.070;2023-04-24T02:45:03;11.60;99.90
16966;DHT22;8599;47.852;12.070;2023-04-24T02:47:30;11.60;99.90
16966;DHT22;8599;47.852;12.070;2023-04-24T02:49:58;11.70;99.90
16966;DHT22;8599;47.852;12.070;2023-04-24T02:52:25;11.70;99.90
16966;DHT22;8599;47.852;12.070;2023-04-24T02:54:52;11.70;99.90
16966;DHT22;8599;47.852;12.070;2023-04-24T02:57:19;11.60;99.90
16966;DHT22;8599;47.852;12.070;2023-04-24T02:59:46;11.60;99.90
16966;DHT22;8599;47.852;12.070;2023-04-24T03:02:13;11.60;99.90
16966;DHT22;8599;47.852;12.070;2023-04-24T03:04:40;11.60;99.90
16966;DHT22;8599;47.852;12.070;2023-04-24T03:07:09;11.60;99.90
16966;DHT22;8599;47.852;12.070;2023-04-24T03:09:36;11.60;99.90
16966;DHT22;8599;47.852;12.070;2023-04-24T03:12:03;11.60;99.90
16966;DHT22;8599;47.852;12.070;2023-04-24T03:14:30;11.50;99.90
16966;DHT22;8599;47.852;12.070;2023-04-24T03:16:57;11.50;99.90
16966;DHT22;8599;47.852;12.070;2023-04-24T03:19:24;11.50;99.90
16966;DHT22;8599;47.852;12.070;2023-04-24T03:21:51;11.50;99.90
16966;DHT22;8599;47.852;12.070;2023-04-24T03:24:19;11.50;99.90
16966;DHT22;8599;47.852;12.070;2023-04-24T03:26:46;11.50;99.90
16966;DHT22;8599;47.852;12.070;2023-04-24T03:29:12;11.50;99.90
16966;DHT22;8599;47.852;12.070;2023-04-24T03:31:39;11.40;99.90
16966;DHT22;8599;47.852;12.070;2023-04-24T03:34:06;11.60;99.90
16966;DHT22;8599;47.852;12.070;2023-04-24T03:36:33;11.50;99.90
16966;DHT22;8599;47.852;12.070;2023-04-24T03:39:00;11.40;99.90
16966;DHT22;8599;47.852;12.070;2023-04-24T03:41:28;11.40;99.90
16966;DHT22;8599;47.852;12.070;2023-04-24T03:43:55;11.40;99.90
16966;DHT22;8599;47.852;12.070;2023-04-24T03:46:22;11.50;99.90
16966;DHT22;8599;47.852;12.070;2023-04-24T03:48:49;11.40;99.90
16966;DHT22;8599;47.852;12.070;2023-04-24T03:51:16;11.30;99.90
16966;DHT22;8599;47.852;12.070;2023-04-24T03:53:43;11.40;99.90
16966;DHT22;8599;47.852;12.070;2023-04-24T03:56:09;11.30;99.90
16966;DHT22;8599;47.852;12.070;2023-04-24T03:58:37;11.30;99.90
16966;DHT22;8599;47.852;12.070;2023-04-24T04:01:04;11.20;99.90
16966;DHT22;8599;47.852;12.070;2023-04-24T04:03:31;11.20;99.90
16966;DHT22;8599;47.852;12.070;2023-04-24T04:05:58;11.30;99.90
16966;DHT22;8599;47.852;12.070;2023-04-24T04:08:26;11.30;99.90
16966;DHT22;8599;47.852;12.070;2023-04-24T04:10:52;11.20;99.90
16966;DHT22;8599;47.852;12.070;2023-04-24T04:13:19;11.20;99.90
16966;DHT22;8599;47.852;12.070;2023-04-24T04:15:47;11.30;99.90
16966;DHT22;8599;47.852;12.070;2023-04-24T04:18:14;11.20;99.90
16966;DHT22;8599;47.852;12.070;2023-04-24T04:20:41;11.20;99.90
16966;DHT22;8599;47.852;12.070;2023-04-24T04:23:07;11.20;99.90
16966;DHT22;8599;47.852;12.070;2023-04-24T04:25:34;11.10;99.90
16966;DHT22;8599;47.852;12.070;2023-04-24T04:28:01;11.10;99.90
16966;DHT22;8599;47.852;12.070;2023-04-24T04:30:28;11.20;99.90
16966;DHT22;8599;47.852;12.070;2023-04-24T04:32:59;11.10;99.90
16966;DHT22;8599;47.852;12.070;2023-04-24T04:35:25;11.20;99.90
16966;DHT22;8599;47.852;12.070;2023-04-24T04:37:52;11.10;99.90
16966;DHT22;8599;47.852;12.070;2023-04-24T04:40:19;11.10;99.90
16966;DHT22;8599;47.852;12.070;2023-04-24T04:42:46;11.00;99.90
16966;DHT22;8599;47.852;12.070;2023-04-24T04:45:13;11.10;99.90
16966;DHT22;8599;47.852;12.070;2023-04-24T04:47:42;11.10;99.90
16966;DHT22;8599;47.852;12.070;2023-04-24T04:50:11;11.10;99.90
16966;DHT22;8599;47.852;12.070;2023-04-24T04:52:38;11.10;99.90
16966;DHT22;8599;47.852;12.070;2023-04-24T04:55:05;11.10;99.90
16966;DHT22;8599;47.852;12.070;2023-04-24T04:57:33;11.00;99.90
16966;DHT22;8599;47.852;12.070;2023-04-24T05:00:00;11.00;99.90
16966;DHT22;8599;47.852;12.070;2023-04-24T05:02:26;11.00;99.90
16966;DHT22;8599;47.852;12.070;2023-04-24T05:04:53;11.00;99.90
16966;DHT22;8599;47.852;12.070;2023-04-24T05:07:21;11.00;99.90
16966;DHT22;8599;47.852;12.070;2023-04-24T05:09:48;11.00;99.90
16966;DHT22;8599;47.852;12.070;2023-04-24T05:12:16;11.00;99.90
16966;DHT22;8599;47.852;12.070;2023-04-24T05:14:43;11.00;99.90
16966;DHT22;8599;47.852;12.070;2023-04-24T05:17:10;11.00;99.90
16966;DHT22;8599;47.852;12.070;2023-04-24T05:19:37;11.00;99.90
16966;DHT22;8599;47.852;12.070;2023-04-24T05:22:04;11.00;99.90
16966;DHT22;8599;47.852;12.070;2023-04-24T05:24:33;11.00;99.90
16966;DHT22;8599;47.852;12.070;2023-04-24T05:27:00;10.90;99.90
16966;DHT22;8599;47.852;12.070;2023-04-24T05:29:27;10.90;99.90
16966;DHT22;8599;47.852;12.070;2023-04-24T05:31:56;10.90;99.90
16966;DHT22;8599;47.852;12.070;2023-04-24T05:34:23;11.00;99.90
16966;DHT22;8599;47.852;12.070;2023-04-24T05:36:50;11.00;99.90
16966;DHT22;8599;47.852;12.070;2023-04-24T05:39:17;11.00;99.90
16966;DHT22;8599;47.852;12.070;2023-04-24T05:41:46;11.00;99.90
16966;DHT22;8599;47.852;12.070;2023-04-24T05:44:13;11.00;99.90
16966;DHT22;8599;47.852;12.070;2023-04-24T05:46:40;11.10;99.90
16966;DHT22;8599;47.852;12.070;2023-04-24T05:49:06;11.10;99.90
16966;DHT22;8599;47.852;12.070;2023-04-24T05:51:33;11.00;99.90
16966;DHT22;8599;47.852;12.070;2023-04-24T05:54:00;11.00;99.90
16966;DHT22;8599;47.852;12.070;2023-04-24T05:56:28;11.10;99.90
16966;DHT22;8599;47.852;12.070;2023-04-24T05:58:57;11.00;99.90
16966;DHT22;8599;47.852;12.070;2023-04-24T06:01:24;10.90;99.90
16966;DHT22;8599;47.852;12.070;2023-04-24T06:03:51;10.90;99.90
16966;DHT22;8599;47.852;12.070;2023-04-24T06:06:18;10.80;99.90
16966;DHT22;8599;47.852;12.070;2023-04-24T06:08:45;10.80;99.90
16966;DHT22;8599;47.852;12.070;2023-04-24T06:11:12;10.80;99.90
16966;DHT22;8599;47.852;12.070;2023-04-24T06:13:39;10.90;99.90
16966;DHT22;8599;47.852;12.070;2023-04-24T06:16:07;11.00;99.90
16966;DHT22;8599;47.852;12.070;2023-04-24T06:18:34;11.00;99.90
16966;DHT22;8599;47.852;12.070;2023-04-24T06:21:01;11.10;99.90
16966;DHT22;8599;47.852;12.070;2023-04-24T06:23:28;11.10;99.90
16966;DHT22;8599;47.852;12.070;2023-04-24T06:25:57;11.20;99.90
16966;DHT22;8599;47.852;12.070;2023-04-24T06:28:27;11.20;99.90
16966;DHT22;8599;47.852;12.070;2023-04-24T06:30:54;11.30;99.90
16966;DHT22;8599;47.852;12.070;2023-04-24T06:33:22;11.30;99.90
16966;DHT22;8599;47.852;12.070;2023-04-24T06:35:49;11.40;99.90
16966;DHT22;8599;47.852;12.070;2023-04-24T06:38:16;11.50;99.90
16966;DHT22;8599;47.852;12.070;2023-04-24T06:40:42;11.50;99.90
16966;DHT22;8599;47.852;12.070;2023-04-24T06:43:09;11.60;99.90
16966;DHT22;8599;47.852;12.070;2023-04-24T06:45:37;11.70;99.90
16966;DHT22;8599;47.852;12.070;2023-04-24T06:48:05;11.90;99.90
16966;DHT22;8599;47.852;12.070;2023-04-24T06:50:33;11.90;99.90
16966;DHT22;8599;47.852;12.070;2023-04-24T06:53:00;11.80;99.90
16966;DHT22;8599;47.852;12.070;2023-04-24T06:55:27;11.90;99.90
16966;DHT22;8599;47.852;12.070;2023-04-24T06:57:54;11.90;99.90
16966;DHT22;8599;47.852;12.070;2023-04-24T07:00:21;12.10;99.90
16966;DHT22;8599;47.852;12.070;2023-04-24T07:02:49;12.10;99.90
16966;DHT22;8599;47.852;12.070;2023-04-24T07:05:16;12.20;99.90
16966;DHT22;8599;47.852;12.070;2023-04-24T07:07:46;12.20;99.90
16966;DHT22;8599;47.852;12.070;2023-04-24T07:10:14;12.20;99.90
16966;DHT22;8599;47.852;12.070;2023-04-24T07:12:41;12.30;99.90
16966;DHT22;8599;47.852;12.070;2023-04-24T07:15:09;12.20;99.90
16966;DHT22;8599;47.852;12.070;2023-04-24T07:17:36;12.30;99.90
16966;DHT22;8599;47.852;12.070;2023-04-24T07:20:04;12.30;99.90
16966;DHT22;8599;47.852;12.070;2023-04-24T07:22:34;12.30;99.90
16966;DHT22;8599;47.852;12.070;2023-04-24T07:25:03;12.30;99.90
16966;DHT22;8599;47.852;12.070;2023-04-24T07:27:30;12.20;99.90
16966;DHT22;8599;47.852;12.070;2023-04-24T07:29:57;12.30;99.90
16966;DHT22;8599;47.852;12.070;2023-04-24T07:32:24;12.30;99.90
16966;DHT22;8599;47.852;12.070;2023-04-24T07:34:50;12.20;99.90
16966;DHT22;8599;47.852;12.070;2023-04-24T07:37:17;12.20;99.90
16966;DHT22;8599;47.852;12.070;2023-04-24T07:39:44;12.30;99.90
16966;DHT22;8599;47.852;12.070;2023-04-24T07:42:12;12.40;99.90
16966;DHT22;8599;47.852;12.070;2023-04-24T07:44:40;12.50;99.90
16966;DHT22;8599;47.852;12.070;2023-04-24T07:47:07;12.50;99.90
16966;DHT22;8599;47.852;12.070;2023-04-24T07:49:34;12.60;99.90
16966;DHT22;8599;47.852;12.070;2023-04-24T07:52:01;12.60;99.90
16966;DHT22;8599;47.852;12.070;2023-04-24T07:54:28;12.70;99.90
16966;DHT22;8599;47.852;12.070;2023-04-24T07:56:55;12.70;99.90
16966;DHT22;8599;47.852;12.070;2023-04-24T07:59:23;12.60;99.90
16966;DHT22;8599;47.852;12.070;2023-04-24T08:01:50;12.80;99.90
16966;DHT22;8599;47.852;12.070;2023-04-24T08:04:18;12.70;99.90
16966;DHT22;8599;47.852;12.070;2023-04-24T08:06:45;12.80;99.90
16966;DHT22;8599;47.852;12.070;2023-04-24T08:09:11;12.80;99.90
16966;DHT22;8599;47.852;12.070;2023-04-24T08:11:38;12.80;99.90
16966;DHT22;8599;47.852;12.070;2023-04-24T08:14:05;13.00;99.90
16966;DHT22;8599;47.852;12.070;2023-04-24T08:16:34;13.00;99.90
16966;DHT22;8599;47.852;12.070;2023-04-24T08:19:01;13.00;99.90
16966;DHT22;8599;47.852;12.070;2023-04-24T08:21:28;13.00;99.90
16966;DHT22;8599;47.852;12.070;2023-04-24T08:23:55;13.00;99.90
16966;DHT22;8599;47.852;12.070;2023-04-24T08:26:22;13.10;99.90
16966;DHT22;8599;47.852;12.070;2023-04-24T08:28:49;13.20;99.90
16966;DHT22;8599;47.852;12.070;2023-04-24T08:31:15;13.10;99.90
16966;DHT22;8599;47.852;12.070;2023-04-24T08:33:44;13.10;99.90
16966;DHT22;8599;47.852;12.070;2023-04-24T08:36:11;13.00;99.90
16966;DHT22;8599;47.852;12.070;2023-04-24T08:38:38;13.00;99.90
16966;DHT22;8599;47.852;12.070;2023-04-24T08:41:05;12.90;99.90
16966;DHT22;8599;47.852;12.070;2023-04-24T08:43:34;12.90;99.90
16966;DHT22;8599;47.852;12.070;2023-04-24T08:46:04;12.70;99.90
16966;DHT22;8599;47.852;12.070;2023-04-24T08:48:31;12.70;99.90
16966;DHT22;8599;47.852;12.070;2023-04-24T08:50:59;12.60;99.90
16966;DHT22;8599;47.852;12.070;2023-04-24T08:53:27;12.60;99.90
16966;DHT22;8599;47.852;12.070;2023-04-24T08:55:55;12.40;99.90
16966;DHT22;8599;47.852;12.070;2023-04-24T08:58:24;12.40;99.90
16966;DHT22;8599;47.852;12.070;2023-04-24T09:00:51;12.40;99.90
16966;DHT22;8599;47.852;12.070;2023-04-24T09:03:21;12.20;99.90
16966;DHT22;8599;47.852;12.070;2023-04-24T09:05:48;12.30;99.90
16966;DHT22;8599;47.852;12.070;2023-04-24T09:08:18;12.40;99.90
16966;DHT22;8599;47.852;12.070;2023-04-24T09:10:46;12.40;99.90
16966;DHT22;8599;47.852;12.070;2023-04-24T09:13:13;12.60;99.90
16966;DHT22;8599;47.852;12.070;2023-04-24T09:15:41;12.60;99.90
16966;DHT22;8599;47.852;12.070;2023-04-24T09:18:08;12.50;99.90
16966;DHT22;8599;47.852;12.070;2023-04-24T09:20:35;12.50;99.90
16966;DHT22;8599;47.852;12.070;2023-04-24T09:23:26;12.60;99.90
16966;DHT22;8599;47.852;12.070;2023-04-24T09:25:55;12.70;99.90
16966;DHT22;8599;47.852;12.070;2023-04-24T09:28:26;12.90;99.90
16966;DHT22;8599;47.852;12.070;2023-04-24T09:31:03;12.70;99.90
16966;DHT22;8599;47.852;12.070;2023-04-24T09:33:30;12.70;99.90
16966;DHT22;8599;47.852;12.070;2023-04-24T09:35:57;12.90;99.90
16966;DHT22;8599;47.852;12.070;2023-04-24T09:38:33;12.90;99.90
16966;DHT22;8599;47.852;12.070;2023-04-24T09:41:01;12.90;99.90
16966;DHT22;8599;47.852;12.070;2023-04-24T09:43:29;12.60;99.90
16966;DHT22;8599;47.852;12.070;2023-04-24T09:45:57;12.50;99.90
16966;DHT22;8599;47.852;12.070;2023-04-24T09:48:31;12.40;99.90
16966;DHT22;8599;47.852;12.070;2023-04-24T09:50:59;12.40;99.90
16966;DHT22;8599;47.852;12.070;2023-04-24T09:53:28;12.40;99.90
16966;DHT22;8599;47.852;12.070;2023-04-24T09:55:56;12.40;99.90
16966;DHT22;8599;47.852;12.070;2023-04-24T09:58:29;12.40;99.90
16966;DHT22;8599;47.852;12.070;2023-04-24T10:00:56;12.50;99.90
16966;DHT22;8599;47.852;12.070;2023-04-24T10:03:24;12.50;99.90
16966;DHT22;8599;47.852;12.070;2023-04-24T10:05:53;12.70;99.90
16966;DHT22;8599;47.852;12.070;2023-04-24T10:08:20;12.80;99.90
16966;DHT22;8599;47.852;12.070;2023-04-24T10:10:47;12.80;99.90
16966;DHT22;8599;47.852;12.070;2023-04-24T10:13:15;12.80;99.90
16966;DHT22;8599;47.852;12.070;2023-04-24T10:15:43;13.10;99.90
16966;DHT22;8599;47.852;12.070;2023-04-24T10:18:11;13.10;99.90
16966;DHT22;8599;47.852;12.070;2023-04-24T10:20:39;13.20;99.90
16966;DHT22;8599;47.852;12.070;2023-04-24T10:23:06;13.10;99.90
16966;DHT22;8599;47.852;12.070;2023-04-24T10:25:34;13.00;99.90
16966;DHT22;8599;47.852;12.070;2023-04-24T10:28:02;13.00;99.90
16966;DHT22;8599;47.852;12.070;2023-04-24T10:30:32;13.10;99.90
16966;DHT22;8599;47.852;12.070;2023-04-24T10:33:00;13.20;99.90
16966;DHT22;8599;47.852;12.070;2023-04-24T10:35:31;13.20;99.90
16966;DHT22;8599;47.852;12.070;2023-04-24T10:38:01;13.30;99.90
16966;DHT22;8599;47.852;12.070;2023-04-24T10:40:31;13.40;99.90
16966;DHT22;8599;47.852;12.070;2023-04-24T10:42:59;13.50;99.90
16966;DHT22;8599;47.852;12.070;2023-04-24T10:45:26;13.50;99.90
16966;DHT22;8599;47.852;12.070;2023-04-24T10:48:04;13.70;99.90
16966;DHT22;8599;47.852;12.070;2023-04-24T10:50:43;13.80;99.90
16966;DHT22;8599;47.852;12.070;2023-04-24T10:53:14;13.80;99.90
16966;DHT22;8599;47.852;12.070;2023-04-24T10:55:43;13.70;99.90
16966;DHT22;8599;47.852;12.070;2023-04-24T10:58:10;13.80;99.90
16966;DHT22;8599;47.852;12.070;2023-04-24T11:00:38;14.00;99.90
16966;DHT22;8599;47.852;12.070;2023-04-24T11:03:22;14.00;99.90
16966;DHT22;8599;47.852;12.070;2023-04-24T11:05:55;13.90;99.90
16966;DHT22;8599;47.852;12.070;2023-04-24T11:08:27;13.90;99.90
16966;DHT22;8599;47.852;12.070;2023-04-24T11:10:58;13.90;99.90
16966;DHT22;8599;47.852;12.070;2023-04-24T11:13:27;13.80;99.90
16966;DHT22;8599;47.852;12.070;2023-04-24T11:16:13;14.00;99.90
16966;DHT22;8599;47.852;12.070;2023-04-24T11:18:42;14.00;99.90
16966;DHT22;8599;47.852;12.070;2023-04-24T11:21:12;13.90;99.90
16966;DHT22;8599;47.852;12.070;2023-04-24T11:23:39;14.00;99.90
16966;DHT22;8599;47.852;12.070;2023-04-24T11:26:14;14.10;99.90
16966;DHT22;8599;47.852;12.070;2023-04-24T11:28:47;14.00;99.90
16966;DHT22;8599;47.852;12.070;2023-04-24T11:31:36;13.90;99.90
16966;DHT22;8599;47.852;12.070;2023-04-24T11:34:09;13.90;99.90
16966;DHT22;8599;47.852;12.070;2023-04-24T11:36:36;14.20;99.90
16966;DHT22;8599;47.852;12.070;2023-04-24T11:39:04;14.30;99.90
16966;DHT22;8599;47.852;12.070;2023-04-24T11:41:31;14.50;99.90
16966;DHT22;8599;47.852;12.070;2023-04-24T11:43:58;14.50;99.90
16966;DHT22;8599;47.852;12.070;2023-04-24T11:46:27;14.50;99.90
16966;DHT22;8599;47.852;12.070;2023-04-24T11:48:55;14.50;99.90
16966;DHT22;8599;47.852;12.070;2023-04-24T11:51:24;14.40;99.90
16966;DHT22;8599;47.852;12.070;2023-04-24T11:53:52;14.30;99.90
16966;DHT22;8599;47.852;12.070;2023-04-24T11:56:19;14.40;99.90
16966;DHT22;8599;47.852;12.070;2023-04-24T11:58:47;14.30;99.90
16966;DHT22;8599;47.852;12.070;2023-04-24T12:01:14;14.10;99.90
16966;DHT22;8599;47.852;12.070;2023-04-24T12:03:41;13.90;99.90
16966;DHT22;8599;47.852;12.070;2023-04-24T12:06:10;13.20;99.90
16966;DHT22;8599;47.852;12.070;2023-04-24T12:08:39;12.40;99.90
16966;DHT22;8599;47.852;12.070;2023-04-24T12:11:07;12.00;99.90
16966;DHT22;8599;47.852;12.070;2023-04-24T12:13:34;11.50;99.90
16966;DHT22;8599;47.852;12.070;2023-04-24T12:16:03;11.50;99.90
16966;DHT22;8599;47.852;12.070;2023-04-24T12:18:30;11.40;99.90
16966;DHT22;8599;47.852;12.070;2023-04-24T12:21:15;11.60;99.90
16966;DHT22;8599;47.852;12.070;2023-04-24T12:23:44;11.70;99.90
16966;DHT22;8599;47.852;12.070;2023-04-24T12:26:11;12.00;99.90
16966;DHT22;8599;47.852;12.070;2023-04-24T12:28:38;12.20;99.90
16966;DHT22;8599;47.852;12.070;2023-04-24T12:31:06;12.40;99.90
16966;DHT22;8599;47.852;12.070;2023-04-24T12:33:34;12.70;99.90
16966;DHT22;8599;47.852;12.070;2023-04-24T12:36:01;12.90;99.90
16966;DHT22;8599;47.852;12.070;2023-04-24T12:38:28;12.90;99.90
16966;DHT22;8599;47.852;12.070;2023-04-24T12:41:03;13.00;99.90
16966;DHT22;8599;47.852;12.070;2023-04-24T12:43:31;13.30;99.90
16966;DHT22;8599;47.852;12.070;2023-04-24T12:45:58;13.50;99.90
16966;DHT22;8599;47.852;12.070;2023-04-24T12:48:25;13.80;99.90
16966;DHT22;8599;47.852;12.070;2023-04-24T12:50:52;14.20;99.90
16966;DHT22;8599;47.852;12.070;2023-04-24T12:53:19;14.50;99.90
16966;DHT22;8599;47.852;12.070;2023-04-24T12:55:46;14.70;99.90
16966;DHT22;8599;47.852;12.070;2023-04-24T12:58:19;15.00;99.90
16966;DHT22;8599;47.852;12.070;2023-04-24T13:00:46;15.40;99.90
16966;DHT22;8599;47.852;12.070;2023-04-24T13:03:14;15.50;99.90
16966;DHT22;8599;47.852;12.070;2023-04-24T13:05:42;15.30;99.90
16966;DHT22;8599;47.852;12.070;2023-04-24T13:08:09;15.40;99.90
16966;DHT22;8599;47.852;12.070;2023-04-24T13:10:38;15.50;99.90
16966;DHT22;8599;47.852;12.070;2023-04-24T13:13:05;15.40;99.90
16966;DHT22;8599;47.852;12.070;2023-04-24T13:15:34;15.40;99.90
16966;DHT22;8599;47.852;12.070;2023-04-24T13:18:01;15.20;99.90
16966;DHT22;8599;47.852;12.070;2023-04-24T13:20:28;14.90;99.90
16966;DHT22;8599;47.852;12.070;2023-04-24T13:22:54;14.80;99.90
16966;DHT22;8599;47.852;12.070;2023-04-24T13:25:21;14.50;99.90
16966;DHT22;8599;47.852;12.070;2023-04-24T13:27:49;14.40;99.90
16966;DHT22;8599;47.852;12.070;2023-04-24T13:30:16;14.50;99.90
16966;DHT22;8599;47.852;12.070;2023-04-24T13:32:44;14.20;99.90
16966;DHT22;8599;47.852;12.070;2023-04-24T13:35:11;14.00;99.90
16966;DHT22;8599;47.852;12.070;2023-04-24T13:37:38;13.80;99.90
16966;DHT22;8599;47.852;12.070;2023-04-24T13:40:06;13.60;99.90
16966;DHT22;8599;47.852;12.070;2023-04-24T13:42:32;13.20;99.90
16966;DHT22;8599;47.852;12.070;2023-04-24T13:44:59;12.60;99.90
16966;DHT22;8599;47.852;12.070;2023-04-24T13:47:26;12.30;99.90
16966;DHT22;8599;47.852;12.070;2023-04-24T13:49:54;12.20;99.90
16966;DHT22;8599;47.852;12.070;2023-04-24T13:52:21;12.20;99.90
16966;DHT22;8599;47.852;12.070;2023-04-24T13:54:48;12.40;99.90
16966;DHT22;8599;47.852;12.070;2023-04-24T13:57:15;12.60;99.90
16966;DHT22;8599;47.852;12.070;2023-04-24T13:59:42;12.70;99.90
16966;DHT22;8599;47.852;12.070;2023-04-24T14:02:09;12.70;99.90
16966;DHT22;8599;47.852;12.070;2023-04-24T14:04:36;12.70;99.90
16966;DHT22;8599;47.852;12.070;2023-04-24T14:07:04;12.60;99.90
16966;DHT22;8599;47.852;12.070;2023-04-24T14:09:30;12.60;99.90
16966;DHT22;8599;47.852;12.070;2023-04-24T14:11:57;12.80;99.90
16966;DHT22;8599;47.852;12.070;2023-04-24T14:14:24;13.10;99.90
16966;DHT22;8599;47.852;12.070;2023-04-24T14:16:51;13.30;99.90
16966;DHT22;8599;47.852;12.070;2023-04-24T14:19:18;13.50;99.90
16966;DHT22;8599;47.852;12.070;2023-04-24T14:21:44;13.90;99.90
16966;DHT22;8599;47.852;12.070;2023-04-24T14:24:13;14.50;99.90
16966;DHT22;8599;47.852;12.070;2023-04-24T14:26:39;15.10;99.90
16966;DHT22;8599;47.852;12.070;2023-04-24T14:29:06;15.40;99.90
16966;DHT22;8599;47.852;12.070;2023-04-24T14:31:33;15.40;99.90
16966;DHT22;8599;47.852;12.070;2023-04-24T14:34:00;15.20;99.90
16966;DHT22;8599;47.852;12.070;2023-04-24T14:36:27;15.20;99.90
16966;DHT22;8599;47.852;12.070;2023-04-24T14:38:53;15.00;99.90
16966;DHT22;8599;47.852;12.070;2023-04-24T14:41:22;15.20;99.90
16966;DHT22;8599;47.852;12.070;2023-04-24T14:43:48;15.00;99.90
16966;DHT22;8599;47.852;12.070;2023-04-24T14:46:15;14.90;99.90
16966;DHT22;8599;47.852;12.070;2023-04-24T14:48:42;15.30;99.90
16966;DHT22;8599;47.852;12.070;2023-04-24T14:51:09;16.00;99.90
16966;DHT22;8599;47.852;12.070;2023-04-24T14:53:35;15.90;99.90
16966;DHT22;8599;47.852;12.070;2023-04-24T14:56:02;15.30;99.90
16966;DHT22;8599;47.852;12.070;2023-04-24T14:58:30;14.90;99.90
16966;DHT22;8599;47.852;12.070;2023-04-24T15:00:57;14.40;99.90
16966;DHT22;8599;47.852;12.070;2023-04-24T15:03:24;13.90;99.90
16966;DHT22;8599;47.852;12.070;2023-04-24T15:05:52;13.70;99.90
16966;DHT22;8599;47.852;12.070;2023-04-24T15:08:19;13.40;99.90
16966;DHT22;8599;47.852;12.070;2023-04-24T15:10:46;13.40;99.90
16966;DHT22;8599;47.852;12.070;2023-04-24T15:13:13;13.40;99.90
16966;DHT22;8599;47.852;12.070;2023-04-24T15:15:42;13.40;99.90
16966;DHT22;8599;47.852;12.070;2023-04-24T15:18:09;13.50;99.90
16966;DHT22;8599;47.852;12.070;2023-04-24T15:20:37;13.60;99.90
16966;DHT22;8599;47.852;12.070;2023-04-24T15:23:07;13.70;99.90
16966;DHT22;8599;47.852;12.070;2023-04-24T15:25:34;14.10;99.90
16966;DHT22;8599;47.852;12.070;2023-04-24T15:28:01;14.30;99.90
16966;DHT22;8599;47.852;12.070;2023-04-24T15:30:28;14.50;99.90
16966;DHT22;8599;47.852;12.070;2023-04-24T15:32:57;14.50;99.90